Time;durP1;ratioP1;P1;durP2;ratioP2;P2;SDS_P1;SDS_P2;PMS_P1;PMS_P2;Temp;Humidity;BMP_temperature;BMP_pressure;BME280_temperature;BME280_humidity;BME280_pressure;Samples;Min_cycle;Max_cycle;Signal;HPM_P1;HPM_P2
2023/09/13 00:02:25;;;;;;;251.93;110.53;;;;;;;;;;5051258;28;20771;-45
2023/09/13 00:04:52;;;;;;;246.70;104.27;;;;;;;;;;5051036;28;20477;-45
2023/09/13 00:07:18;;;;;;;252.00;111.23;;;;;;;;;;5050722;28;20410;-46
2023/09/13 00:09:44;;;;;;;250.57;109.67;;;;;;;;;;5051617;28;20417;-46
2023/09/13 00:12:10;;;;;;;247.13;105.77;;;;;;;;;;5055050;28;20408;-45
2023/09/13 00:14:36;;;;;;;245.87;103.43;;;;;;;;;;5054734;28;20927;-45
2023/09/13 00:17:02;;;;;;;249.97;106.40;;;;;;;;;;5054545;28;20917;-45
2023/09/13 00:19:29;;;;;;;250.33;107.30;;;;;;;;;;5054142;28;20434;-45
2023/09/13 00:21:55;;;;;;;248.03;104.13;;;;;;;;;;5053306;28;20401;-45
2023/09/13 00:24:21;;;;;;;248.97;108.33;;;;;;;;;;5054607;28;20499;-45
2023/09/13 00:26:47;;;;;;;252.93;110.63;;;;;;;;;;5049815;28;20439;-45
2023/09/13 00:29:14;;;;;;;248.03;107.93;;;;;;;;;;5054345;28;20436;-45
2023/09/13 00:31:40;;;;;;;247.77;106.80;;;;;;;;;;5054428;28;20504;-46
2023/09/13 00:34:07;;;;;;;248.60;107.23;;;;;;;;;;5052897;28;20489;-45
2023/09/13 00:36:33;;;;;;;248.43;107.93;;;;;;;;;;5054403;28;20908;-45
2023/09/13 00:38:59;;;;;;;246.00;101.33;;;;;;;;;;5054168;28;20474;-46
2023/09/13 00:41:25;;;;;;;243.53;100.53;;;;;;;;;;5054339;28;20914;-46
2023/09/13 00:43:51;;;;;;;245.03;101.10;;;;;;;;;;5054146;28;20468;-45
2023/09/13 00:46:17;;;;;;;244.87;102.73;;;;;;;;;;5054196;28;20412;-45
2023/09/13 00:48:43;;;;;;;244.93;101.10;;;;;;;;;;5052624;28;20471;-45
2023/09/13 00:51:10;;;;;;;248.13;106.50;;;;;;;;;;5053912;28;20423;-45
2023/09/13 00:53:36;;;;;;;248.20;104.13;;;;;;;;;;5054150;28;20417;-45
2023/09/13 00:56:02;;;;;;;245.03;101.00;;;;;;;;;;5053974;28;20405;-46
2023/09/13 00:58:29;;;;;;;245.07;103.07;;;;;;;;;;5053835;28;20446;-45
2023/09/13 01:00:55;;;;;;;249.03;106.67;;;;;;;;;;5053902;28;20419;-45
2023/09/13 01:03:22;;;;;;;244.77;102.53;;;;;;;;;;5052245;28;20972;-45
2023/09/13 01:05:52;;;;;;;246.17;106.37;;;;;;;;;;5053199;28;20407;-45
2023/09/13 01:08:18;;;;;;;243.90;104.23;;;;;;;;;;5053251;28;20472;-45
2023/09/13 01:10:44;;;;;;;244.00;100.57;;;;;;;;;;5053765;28;20417;-45
2023/09/13 01:13:10;;;;;;;245.93;103.63;;;;;;;;;;5053801;28;20497;-45
2023/09/13 01:15:38;;;;;;;247.87;105.33;;;;;;;;;;5053469;28;20406;-45
2023/09/13 01:18:04;;;;;;;247.60;105.67;;;;;;;;;;5045440;28;20769;-46
2023/09/13 01:20:33;;;;;;;244.47;101.50;;;;;;;;;;5050372;28;20413;-46
2023/09/13 01:23:02;;;;;;;244.23;101.97;;;;;;;;;;5053435;28;20423;-45
2023/09/13 01:25:37;;;;;;;250.07;109.30;;;;;;;;;;5053451;28;20419;-46
2023/09/13 01:28:12;;;;;;;248.70;107.27;;;;;;;;;;5053226;28;20432;-46
2023/09/13 01:30:39;;;;;;;247.47;105.30;;;;;;;;;;5052242;28;20410;-45
2023/09/13 01:33:05;;;;;;;248.80;105.67;;;;;;;;;;5050507;28;20417;-45
2023/09/13 01:35:31;;;;;;;245.87;105.10;;;;;;;;;;5053190;28;20413;-45
2023/09/13 01:37:57;;;;;;;248.70;106.20;;;;;;;;;;5052864;28;21012;-45
2023/09/13 01:40:26;;;;;;;249.20;107.23;;;;;;;;;;5053263;28;20488;-45
2023/09/13 01:42:53;;;;;;;247.47;103.73;;;;;;;;;;5053233;28;20398;-46
2023/09/13 01:45:19;;;;;;;246.77;103.47;;;;;;;;;;5051904;28;20468;-45
2023/09/13 01:47:46;;;;;;;248.10;106.67;;;;;;;;;;5052682;28;20440;-45
2023/09/13 01:50:12;;;;;;;244.80;101.27;;;;;;;;;;5053179;28;20415;-45
2023/09/13 01:52:38;;;;;;;247.13;105.83;;;;;;;;;;5052845;28;20429;-45
2023/09/13 01:55:08;;;;;;;248.50;107.23;;;;;;;;;;5052767;28;20808;-45
2023/09/13 01:57:34;;;;;;;246.93;102.53;;;;;;;;;;5052133;28;20409;-45
2023/09/13 02:00:00;;;;;;;245.37;101.57;;;;;;;;;;5052458;28;20412;-46
2023/09/13 02:02:26;;;;;;;248.20;104.57;;;;;;;;;;5052756;28;20425;-46
2023/09/13 02:04:52;;;;;;;257.87;111.43;;;;;;;;;;5049091;28;20584;-45
2023/09/13 02:07:18;;;;;;;249.87;103.80;;;;;;;;;;5049463;28;20459;-45
2023/09/13 02:09:44;;;;;;;248.43;105.63;;;;;;;;;;5052934;28;20759;-45
2023/09/13 02:12:12;;;;;;;246.00;102.43;;;;;;;;;;5049931;28;20405;-45
2023/09/13 02:14:38;;;;;;;248.77;109.87;;;;;;;;;;5047926;28;20430;-45
2023/09/13 02:17:04;;;;;;;250.07;108.83;;;;;;;;;;5052555;28;20417;-45
2023/09/13 02:19:30;;;;;;;249.20;106.43;;;;;;;;;;5052455;28;20434;-44
2023/09/13 02:21:56;;;;;;;243.77;99.67;;;;;;;;;;5051224;28;20500;-45
2023/09/13 02:24:22;;;;;;;248.70;106.37;;;;;;;;;;5051744;28;20511;-45
2023/09/13 02:26:48;;;;;;;246.17;102.93;;;;;;;;;;5050501;28;20405;-46
2023/09/13 02:29:14;;;;;;;243.97;100.23;;;;;;;;;;5052078;28;20508;-45
2023/09/13 02:31:40;;;;;;;247.50;106.77;;;;;;;;;;5051352;28;20419;-45
2023/09/13 02:34:06;;;;;;;249.07;107.77;;;;;;;;;;5052045;28;20424;-44
2023/09/13 02:36:32;;;;;;;248.67;105.20;;;;;;;;;;5051023;28;20838;-44
2023/09/13 02:38:59;;;;;;;242.43;100.53;;;;;;;;;;5052062;28;20473;-44
2023/09/13 02:41:25;;;;;;;246.53;103.77;;;;;;;;;;5052162;28;20487;-45
2023/09/13 02:43:51;;;;;;;246.40;103.50;;;;;;;;;;5051937;28;20551;-44
2023/09/13 02:46:17;;;;;;;245.43;102.40;;;;;;;;;;5051989;28;20775;-45
2023/09/13 02:48:43;;;;;;;247.17;103.73;;;;;;;;;;5051627;28;20806;-44
2023/09/13 02:51:13;;;;;;;242.60;98.60;;;;;;;;;;5050822;28;20840;-45
2023/09/13 02:53:39;;;;;;;247.37;104.33;;;;;;;;;;5051683;28;20418;-45
2023/09/13 02:56:08;;;;;;;246.17;100.50;;;;;;;;;;5051910;28;20470;-47
2023/09/13 02:58:34;;;;;;;256.70;122.43;;;;;;;;;;5051600;28;20488;-45
2023/09/13 03:01:03;;;;;;;266.77;135.33;;;;;;;;;;5049221;28;20864;-45
2023/09/13 03:03:30;;;;;;;259.33;131.43;;;;;;;;;;5047235;28;20479;-45
2023/09/13 03:06:05;;;;;;;261.03;128.47;;;;;;;;;;5050896;28;20409;-45
2023/09/13 03:08:31;;;;;;;266.33;134.50;;;;;;;;;;5051409;28;20428;-45
2023/09/13 03:10:57;;;;;;;259.27;125.97;;;;;;;;;;5051633;28;20535;-45
2023/09/13 03:13:23;;;;;;;265.37;132.77;;;;;;;;;;5045848;28;20467;-45
2023/09/13 03:15:49;;;;;;;265.27;134.33;;;;;;;;;;5051374;28;20417;-46
2023/09/13 03:18:15;;;;;;;261.77;129.60;;;;;;;;;;5050458;28;20443;-44
2023/09/13 03:20:40;;;;;;;260.97;126.00;;;;;;;;;;5051543;28;20500;-44
2023/09/13 03:23:06;;;;;;;263.17;128.63;;;;;;;;;;5051642;28;20436;-45
2023/09/13 03:25:35;;;;;;;263.47;129.30;;;;;;;;;;5051603;28;20408;-45
2023/09/13 03:28:01;;;;;;;261.63;125.93;;;;;;;;;;5051293;28;20527;-45
2023/09/13 03:30:27;;;;;;;263.13;130.20;;;;;;;;;;5051501;28;20508;-44
2023/09/13 03:32:53;;;;;;;264.17;129.90;;;;;;;;;;5050664;28;21281;-44
2023/09/13 03:35:19;;;;;;;261.30;126.33;;;;;;;;;;5051382;28;20912;-45
2023/09/13 03:37:45;;;;;;;262.67;130.77;;;;;;;;;;5051225;28;20446;-44
2023/09/13 03:40:11;;;;;;;260.10;128.77;;;;;;;;;;5051405;28;20773;-45
2023/09/13 03:42:37;;;;;;;259.47;128.83;;;;;;;;;;5053049;28;20462;-45
2023/09/13 03:45:03;;;;;;;263.80;141.03;;;;;;;;;;5055295;28;20471;-46
2023/09/13 03:47:29;;;;;;;260.43;126.77;;;;;;;;;;5054367;28;20412;-45
2023/09/13 03:49:55;;;;;;;254.87;119.33;;;;;;;;;;5055270;28;21032;-46
2023/09/13 03:52:21;;;;;;;256.53;122.33;;;;;;;;;;5055188;28;20428;-44
2023/09/13 03:54:47;;;;;;;259.17;126.27;;;;;;;;;;5055044;28;20444;-45
2023/09/13 03:57:13;;;;;;;261.33;124.90;;;;;;;;;;5055010;28;20458;-45
2023/09/13 03:59:39;;;;;;;263.40;135.93;;;;;;;;;;5054849;28;20431;-45
2023/09/13 04:02:05;;;;;;;260.87;130.03;;;;;;;;;;5055061;28;20408;-46
2023/09/13 04:04:31;;;;;;;259.80;127.77;;;;;;;;;;5054897;28;20470;-46
2023/09/13 04:06:57;;;;;;;263.20;134.47;;;;;;;;;;5054898;28;20898;-45
2023/09/13 04:09:23;;;;;;;264.10;137.50;;;;;;;;;;5054809;28;20429;-45
2023/09/13 04:11:49;;;;;;;257.77;125.60;;;;;;;;;;5054863;28;20417;-46
2023/09/13 04:14:15;;;;;;;263.53;141.63;;;;;;;;;;5054405;28;20429;-46
2023/09/13 04:16:41;;;;;;;268.17;146.07;;;;;;;;;;5054670;28;20429;-45
2023/09/13 04:19:07;;;;;;;262.87;138.50;;;;;;;;;;5054754;28;20489;-46
2023/09/13 04:21:32;;;;;;;262.67;132.20;;;;;;;;;;5051147;28;20419;-45
2023/09/13 04:24:01;;;;;;;264.30;141.43;;;;;;;;;;5054513;28;20459;-45
2023/09/13 04:26:27;;;;;;;262.03;133.93;;;;;;;;;;5054631;28;20418;-45
2023/09/13 04:28:53;;;;;;;264.10;137.90;;;;;;;;;;5053874;28;20792;-45
2023/09/13 04:31:19;;;;;;;269.40;145.90;;;;;;;;;;5054695;28;20440;-45
2023/09/13 04:33:52;;;;;;;264.10;134.90;;;;;;;;;;5050603;28;20416;-45
2023/09/13 04:36:18;;;;;;;262.77;131.60;;;;;;;;;;5054367;28;20417;-45
2023/09/13 04:38:46;;;;;;;260.10;128.97;;;;;;;;;;5053974;28;20427;-45
2023/09/13 04:41:15;;;;;;;262.03;132.67;;;;;;;;;;5054321;28;20417;-44
2023/09/13 04:43:41;;;;;;;267.37;139.40;;;;;;;;;;5053554;28;20462;-45
2023/09/13 04:46:07;;;;;;;266.27;140.70;;;;;;;;;;5054385;28;20418;-46
2023/09/13 04:48:34;;;;;;;262.97;134.53;;;;;;;;;;5053801;28;20437;-45
2023/09/13 04:51:00;;;;;;;261.47;132.57;;;;;;;;;;5047743;28;20430;-45
2023/09/13 04:53:26;;;;;;;257.03;126.27;;;;;;;;;;5053156;28;20418;-45
2023/09/13 04:55:52;;;;;;;258.73;128.80;;;;;;;;;;5051646;28;20796;-45
2023/09/13 04:58:18;;;;;;;259.07;124.47;;;;;;;;;;5052449;28;20428;-45
2023/09/13 05:00:44;;;;;;;255.17;122.07;;;;;;;;;;5051514;28;20412;-45
2023/09/13 05:03:10;;;;;;;260.47;132.33;;;;;;;;;;5053718;28;20416;-45
2023/09/13 05:05:36;;;;;;;259.13;129.27;;;;;;;;;;5053635;28;20417;-44
2023/09/13 05:08:02;;;;;;;256.60;123.83;;;;;;;;;;5053194;28;20434;-44
2023/09/13 05:10:30;;;;;;;263.27;134.97;;;;;;;;;;5051807;28;20408;-45
2023/09/13 05:12:56;;;;;;;265.33;138.33;;;;;;;;;;5053402;28;20408;-45
2023/09/13 05:15:24;;;;;;;256.97;127.53;;;;;;;;;;5053565;28;20864;-45
2023/09/13 05:17:50;;;;;;;257.40;125.03;;;;;;;;;;5053258;28;20439;-45
2023/09/13 05:20:16;;;;;;;260.47;133.23;;;;;;;;;;5053640;28;20507;-45
2023/09/13 05:22:42;;;;;;;256.73;126.00;;;;;;;;;;5053115;28;20427;-45
2023/09/13 05:25:08;;;;;;;259.83;129.83;;;;;;;;;;5053290;28;20524;-45
2023/09/13 05:27:34;;;;;;;259.83;127.93;;;;;;;;;;5053058;28;20426;-45
2023/09/13 05:30:01;;;;;;;259.87;130.23;;;;;;;;;;5053332;28;20411;-45
2023/09/13 05:32:27;;;;;;;258.27;125.37;;;;;;;;;;5053471;28;20423;-44
2023/09/13 05:34:53;;;;;;;255.93;122.63;;;;;;;;;;5052966;28;20759;-44
2023/09/13 05:37:19;;;;;;;260.57;129.07;;;;;;;;;;5053066;28;20802;-44
2023/09/13 05:39:45;;;;;;;252.57;114.30;;;;;;;;;;5052976;28;20950;-45
2023/09/13 05:42:11;;;;;;;257.70;123.67;;;;;;;;;;5053034;28;20502;-44
2023/09/13 05:44:37;;;;;;;255.97;121.30;;;;;;;;;;5053047;28;20988;-45
2023/09/13 05:47:03;;;;;;;249.07;119.60;;;;;;;;;;5046109;28;20412;-45
2023/09/13 05:49:29;;;;;;;252.47;117.83;;;;;;;;;;5052915;28;20431;-44
2023/09/13 05:51:55;;;;;;;252.47;118.43;;;;;;;;;;5052748;28;20509;-44
2023/09/13 05:54:21;;;;;;;253.87;121.80;;;;;;;;;;5053192;28;20409;-45
2023/09/13 05:56:47;;;;;;;248.67;113.43;;;;;;;;;;5052671;28;20756;-45
2023/09/13 05:59:13;;;;;;;250.60;115.63;;;;;;;;;;5047517;28;20442;-45
2023/09/13 06:01:39;;;;;;;257.03;123.90;;;;;;;;;;5052786;28;20423;-45
2023/09/13 06:04:07;;;;;;;254.63;121.23;;;;;;;;;;5052547;28;20487;-46
2023/09/13 06:06:33;;;;;;;252.30;117.87;;;;;;;;;;5052519;28;20418;-45
2023/09/13 06:08:59;;;;;;;251.10;117.07;;;;;;;;;;5052094;28;20430;-45
2023/09/13 06:11:25;;;;;;;254.13;118.13;;;;;;;;;;5052639;28;20444;-45
2023/09/13 06:13:52;;;;;;;254.13;120.53;;;;;;;;;;5052379;28;20404;-45
2023/09/13 06:16:18;;;;;;;254.83;123.63;;;;;;;;;;5052586;28;20489;-45
2023/09/13 06:18:44;;;;;;;256.80;124.83;;;;;;;;;;5052102;28;20534;-45
2023/09/13 06:21:12;;;;;;;254.60;123.77;;;;;;;;;;5050767;28;20449;-45
2023/09/13 06:23:39;;;;;;;254.83;118.80;;;;;;;;;;5052174;28;20465;-45
2023/09/13 06:26:05;;;;;;;252.40;118.37;;;;;;;;;;5052353;28;20425;-46
2023/09/13 06:28:31;;;;;;;250.23;117.93;;;;;;;;;;5052047;28;20432;-45
2023/09/13 06:30:58;;;;;;;252.87;118.30;;;;;;;;;;5052294;28;20412;-45
2023/09/13 06:33:24;;;;;;;251.57;116.00;;;;;;;;;;5052177;28;20404;-45
2023/09/13 06:35:50;;;;;;;252.93;117.27;;;;;;;;;;5050731;28;20942;-45
2023/09/13 06:38:17;;;;;;;257.83;124.17;;;;;;;;;;5051828;28;20514;-45
2023/09/13 06:40:43;;;;;;;255.07;122.93;;;;;;;;;;5052124;28;20474;-45
2023/09/13 06:43:10;;;;;;;251.40;121.43;;;;;;;;;;5051947;28;20495;-45
2023/09/13 06:45:37;;;;;;;255.30;120.97;;;;;;;;;;5044063;28;20439;-45
2023/09/13 06:48:03;;;;;;;248.07;116.30;;;;;;;;;;5043550;28;20489;-45
2023/09/13 06:50:29;;;;;;;250.40;116.07;;;;;;;;;;5052154;28;20500;-45
2023/09/13 06:52:55;;;;;;;253.10;123.20;;;;;;;;;;5053382;28;20467;-45
2023/09/13 06:55:21;;;;;;;251.80;123.73;;;;;;;;;;5054538;28;20423;-45
2023/09/13 06:57:48;;;;;;;247.80;121.60;;;;;;;;;;5051255;28;20566;-45
2023/09/13 07:00:14;;;;;;;250.97;118.73;;;;;;;;;;5054639;28;21119;-45
2023/09/13 07:02:40;;;;;;;254.93;122.80;;;;;;;;;;5054903;28;20786;-45
2023/09/13 07:05:06;;;;;;;246.30;116.90;;;;;;;;;;5051701;28;20467;-45
2023/09/13 07:07:32;;;;;;;217.70;114.13;;;;;;;;;;5051773;28;20481;-45
2023/09/13 07:09:58;;;;;;;243.20;121.60;;;;;;;;;;5051672;28;20915;-45
2023/09/13 07:12:25;;;;;;;251.77;123.00;;;;;;;;;;5051812;28;20976;-45
2023/09/13 07:14:51;;;;;;;254.53;120.43;;;;;;;;;;5057549;28;20764;-45
2023/09/13 07:17:18;;;;;;;252.40;121.90;;;;;;;;;;5055641;28;20428;-45
2023/09/13 07:19:45;;;;;;;251.67;120.13;;;;;;;;;;5054308;28;20404;-45
2023/09/13 07:22:11;;;;;;;246.37;114.17;;;;;;;;;;5051660;28;20399;-45
2023/09/13 07:24:37;;;;;;;252.43;122.23;;;;;;;;;;5051857;28;20464;-46
2023/09/13 07:27:03;;;;;;;248.43;116.43;;;;;;;;;;5045769;28;20415;-45
2023/09/13 07:29:29;;;;;;;247.90;120.23;;;;;;;;;;5057427;28;20447;-45
2023/09/13 07:31:55;;;;;;;263.20;125.70;;;;;;;;;;5044862;28;20891;-45
2023/09/13 07:34:20;;;;;;;251.87;120.07;;;;;;;;;;5048715;28;20421;-45
2023/09/13 07:36:46;;;;;;;257.27;125.43;;;;;;;;;;5052084;28;20413;-45
2023/09/13 07:39:12;;;;;;;249.80;117.80;;;;;;;;;;5048796;28;20498;-45
2023/09/13 07:41:38;;;;;;;251.23;121.80;;;;;;;;;;5047173;28;20421;-45
2023/09/13 07:44:05;;;;;;;245.57;121.57;;;;;;;;;;5052153;28;20470;-45
2023/09/13 07:46:31;;;;;;;244.63;121.60;;;;;;;;;;5052423;28;20420;-45
2023/09/13 07:48:57;;;;;;;245.37;114.87;;;;;;;;;;5050613;28;20430;-45
2023/09/13 07:51:23;;;;;;;244.33;118.70;;;;;;;;;;5050655;28;20950;-45
2023/09/13 07:53:48;;;;;;;235.27;110.27;;;;;;;;;;5049308;28;20851;-46
2023/09/13 07:56:14;;;;;;;231.93;114.47;;;;;;;;;;5051199;28;20895;-45
2023/09/13 07:58:41;;;;;;;248.47;119.03;;;;;;;;;;5050913;28;20944;-45
2023/09/13 08:01:07;;;;;;;250.80;119.93;;;;;;;;;;5051195;28;20420;-45
2023/09/13 08:03:33;;;;;;;253.63;121.23;;;;;;;;;;5050094;28;20471;-45
2023/09/13 08:06:02;;;;;;;252.07;122.43;;;;;;;;;;5051004;28;20768;-45
2023/09/13 08:08:30;;;;;;;251.97;120.67;;;;;;;;;;5050940;28;20947;-45
2023/09/13 08:10:56;;;;;;;254.43;120.53;;;;;;;;;;5051058;28;20408;-45
2023/09/13 08:13:22;;;;;;;252.63;118.07;;;;;;;;;;5050751;28;20930;-45
2023/09/13 08:15:52;;;;;;;245.60;117.30;;;;;;;;;;5050432;28;20542;-45
2023/09/13 08:18:18;;;;;;;247.90;119.27;;;;;;;;;;5050829;28;20468;-45
2023/09/13 08:20:44;;;;;;;250.80;123.00;;;;;;;;;;5053894;28;21037;-45
2023/09/13 08:23:10;;;;;;;254.67;123.23;;;;;;;;;;5055458;28;20501;-47
2023/09/13 08:25:36;;;;;;;246.37;117.90;;;;;;;;;;5056797;28;20460;-45
2023/09/13 08:28:03;;;;;;;248.97;114.63;;;;;;;;;;5058196;28;20500;-45
2023/09/13 08:30:29;;;;;;;250.13;120.67;;;;;;;;;;5053998;28;20807;-45
2023/09/13 08:32:55;;;;;;;245.47;120.43;;;;;;;;;;5051082;28;21232;-45
2023/09/13 08:35:21;;;;;;;251.20;122.07;;;;;;;;;;5050478;28;20427;-45
2023/09/13 08:37:48;;;;;;;237.53;115.53;;;;;;;;;;5052995;28;20460;-45
2023/09/13 08:40:14;;;;;;;247.90;118.53;;;;;;;;;;5054331;28;20408;-45
2023/09/13 08:42:40;;;;;;;252.63;124.20;;;;;;;;;;5047244;28;20709;-45
2023/09/13 08:45:07;;;;;;;257.00;126.27;;;;;;;;;;5061018;28;20495;-45
2023/09/13 08:47:36;;;;;;;259.47;127.13;;;;;;;;;;5056165;28;20459;-45
2023/09/13 08:50:03;;;;;;;250.20;122.93;;;;;;;;;;5058096;28;20411;-45
2023/09/13 08:52:30;;;;;;;246.57;120.43;;;;;;;;;;5049483;28;20434;-45
2023/09/13 08:54:56;;;;;;;260.33;125.10;;;;;;;;;;5052530;28;20785;-45
2023/09/13 08:57:23;;;;;;;260.13;118.63;;;;;;;;;;5050572;28;21403;-45
2023/09/13 08:59:49;;;;;;;260.57;134.17;;;;;;;;;;5050972;28;20813;-45
2023/09/13 09:02:18;;;;;;;249.10;124.43;;;;;;;;;;5042853;28;20432;-45
2023/09/13 09:04:45;;;;;;;255.00;121.63;;;;;;;;;;5044931;28;20598;-45
2023/09/13 09:07:11;;;;;;;261.73;127.33;;;;;;;;;;5046697;28;20440;-45
2023/09/13 09:09:37;;;;;;;264.03;127.83;;;;;;;;;;5046694;28;20442;-45
2023/09/13 09:12:04;;;;;;;255.93;125.03;;;;;;;;;;5051686;28;20516;-45
2023/09/13 09:14:31;;;;;;;253.20;129.37;;;;;;;;;;5049871;28;20876;-45
2023/09/13 09:16:59;;;;;;;256.57;124.23;;;;;;;;;;5043950;28;20437;-45
2023/09/13 09:19:26;;;;;;;256.87;124.57;;;;;;;;;;5048329;28;20873;-45
2023/09/13 09:21:52;;;;;;;238.77;121.90;;;;;;;;;;5047057;28;20480;-45
2023/09/13 09:24:18;;;;;;;240.93;118.53;;;;;;;;;;5047373;28;20459;-45
2023/09/13 09:26:46;;;;;;;250.87;125.33;;;;;;;;;;5044649;28;20921;-45
2023/09/13 09:29:21;;;;;;;249.00;121.30;;;;;;;;;;5050780;28;20538;-45
2023/09/13 09:31:51;;;;;;;252.63;124.23;;;;;;;;;;5046843;28;20922;-46
2023/09/13 09:34:17;;;;;;;251.50;127.00;;;;;;;;;;5050765;28;20448;-46
2023/09/13 09:36:46;;;;;;;268.20;134.47;;;;;;;;;;5043189;28;20425;-45
2023/09/13 09:39:13;;;;;;;254.43;131.30;;;;;;;;;;5050136;28;20456;-45
2023/09/13 09:41:39;;;;;;;260.97;134.50;;;;;;;;;;5042644;28;20453;-45
2023/09/13 09:44:06;;;;;;;262.90;129.07;;;;;;;;;;5052028;28;20467;-46
2023/09/13 09:46:32;;;;;;;267.07;139.50;;;;;;;;;;5042697;28;20417;-46
2023/09/13 09:48:59;;;;;;;247.63;121.93;;;;;;;;;;5045843;28;22360;-45
2023/09/13 09:51:25;;;;;;;262.57;137.93;;;;;;;;;;5042935;28;20448;-45
2023/09/13 09:53:52;;;;;;;266.23;145.47;;;;;;;;;;5049116;28;20409;-45
2023/09/13 09:56:18;;;;;;;255.73;136.00;;;;;;;;;;5044733;28;20460;-45
2023/09/13 09:58:47;;;;;;;200.03;113.57;;;;;;;;;;5050662;28;20451;-45
2023/09/13 10:01:18;;;;;;;232.13;122.97;;;;;;;;;;5053277;28;20540;-46
2023/09/13 10:03:44;;;;;;;246.20;130.90;;;;;;;;;;5051163;28;20842;-45
2023/09/13 10:06:14;;;;;;;254.97;132.97;;;;;;;;;;5045424;28;20422;-46
2023/09/13 10:08:41;;;;;;;253.80;130.97;;;;;;;;;;5052155;28;20423;-45
2023/09/13 10:11:07;;;;;;;243.33;129.03;;;;;;;;;;5054691;28;20775;-46
2023/09/13 10:13:34;;;;;;;265.60;147.43;;;;;;;;;;5048357;28;20964;-45
2023/09/13 10:16:03;;;;;;;246.47;129.73;;;;;;;;;;5051166;28;20971;-46
2023/09/13 10:18:31;;;;;;;237.27;119.60;;;;;;;;;;5072275;28;20919;-45
2023/09/13 10:20:58;;;;;;;254.07;132.43;;;;;;;;;;5036263;28;20415;-45
2023/09/13 10:23:29;;;;;;;255.83;127.50;;;;;;;;;;5047275;28;20416;-45
2023/09/13 10:25:57;;;;;;;255.80;127.40;;;;;;;;;;5052270;28;20427;-45
2023/09/13 10:28:26;;;;;;;257.97;135.43;;;;;;;;;;5043768;28;20452;-45
2023/09/13 10:30:53;;;;;;;258.80;127.37;;;;;;;;;;5047096;28;20429;-45
2023/09/13 10:33:21;;;;;;;254.87;123.00;;;;;;;;;;5039293;28;20914;-45
2023/09/13 10:35:49;;;;;;;262.63;135.27;;;;;;;;;;5047995;28;20433;-45
2023/09/13 10:38:26;;;;;;;255.07;116.73;;;;;;;;;;5032081;28;20798;-45
2023/09/13 10:41:03;;;;;;;251.80;110.73;;;;;;;;;;5032314;28;20409;-45
2023/09/13 10:43:29;;;;;;;254.30;120.50;;;;;;;;;;5070015;28;20404;-45
2023/09/13 10:45:55;;;;;;;253.67;115.17;;;;;;;;;;5045550;28;20800;-45
2023/09/13 10:48:22;;;;;;;253.17;116.73;;;;;;;;;;5057732;28;20519;-45
2023/09/13 10:50:49;;;;;;;233.90;108.50;;;;;;;;;;5058196;28;20786;-45
2023/09/13 10:53:15;;;;;;;242.23;112.37;;;;;;;;;;5038436;28;20917;-45
2023/09/13 10:55:41;;;;;;;239.30;110.23;;;;;;;;;;5050854;28;20441;-46
2023/09/13 10:58:09;;;;;;;195.73;93.03;;;;;;;;;;5034665;28;20961;-45
2023/09/13 11:00:37;;;;;;;208.83;91.47;;;;;;;;;;5032079;28;20483;-45
2023/09/13 11:03:04;;;;;;;235.20;103.50;;;;;;;;;;5037281;28;20431;-45
2023/09/13 11:05:31;;;;;;;235.07;111.93;;;;;;;;;;5048365;28;20465;-45
2023/09/13 11:07:57;;;;;;;233.10;107.40;;;;;;;;;;5042586;28;20441;-44
2023/09/13 11:10:23;;;;;;;229.13;103.80;;;;;;;;;;5049173;28;20879;-45
2023/09/13 11:12:50;;;;;;;232.57;109.03;;;;;;;;;;5042187;28;20491;-45
2023/09/13 11:15:20;;;;;;;187.17;91.77;;;;;;;;;;5043865;28;20428;-44
2023/09/13 11:17:46;;;;;;;132.70;81.67;;;;;;;;;;5068217;28;20758;-45
2023/09/13 11:20:38;;;;;;;197.67;98.63;;;;;;;;;;5031470;28;20613;-45
2023/09/13 11:23:09;;;;;;;233.53;107.70;;;;;;;;;;5031887;28;20762;-45
2023/09/13 11:25:42;;;;;;;242.17;105.37;;;;;;;;;;5070788;28;20463;-45
2023/09/13 11:28:09;;;;;;;238.10;106.50;;;;;;;;;;5035983;28;20436;-45
2023/09/13 11:30:46;;;;;;;241.77;103.77;;;;;;;;;;5046424;28;20415;-45
2023/09/13 11:33:13;;;;;;;243.77;105.20;;;;;;;;;;5045541;28;20780;-45
2023/09/13 11:35:39;;;;;;;244.10;107.57;;;;;;;;;;5044411;28;20434;-45
2023/09/13 11:38:05;;;;;;;240.53;105.63;;;;;;;;;;5042321;28;20432;-46
2023/09/13 11:40:31;;;;;;;246.03;107.90;;;;;;;;;;5044095;28;20914;-45
2023/09/13 11:42:59;;;;;;;244.63;112.33;;;;;;;;;;5036166;28;20462;-46
2023/09/13 11:45:30;;;;;;;243.13;111.33;;;;;;;;;;5071287;28;20459;-45
2023/09/13 11:47:56;;;;;;;148.07;90.13;;;;;;;;;;5051939;28;20421;-45
2023/09/13 11:50:22;;;;;;;242.47;108.57;;;;;;;;;;5047070;28;20416;-45
2023/09/13 11:53:10;;;;;;;212.80;101.13;;;;;;;;;;5053969;28;20438;-45
2023/09/13 11:55:43;;;;;;;238.13;107.00;;;;;;;;;;5052025;28;20434;-45
2023/09/13 11:58:13;;;;;;;230.63;104.17;;;;;;;;;;5051079;28;20760;-46
2023/09/13 12:00:42;;;;;;;207.27;99.90;;;;;;;;;;5051881;28;20440;-45
2023/09/13 12:03:08;;;;;;;200.73;93.77;;;;;;;;;;5059648;28;20419;-45
2023/09/13 12:05:34;;;;;;;243.20;107.33;;;;;;;;;;5071106;28;20467;-45
2023/09/13 12:08:00;;;;;;;244.13;106.37;;;;;;;;;;5056086;28;20429;-45
2023/09/13 12:10:29;;;;;;;253.30;110.80;;;;;;;;;;5059217;28;20417;-45
2023/09/13 12:12:55;;;;;;;247.93;108.83;;;;;;;;;;5059981;28;20410;-45
2023/09/13 12:15:25;;;;;;;232.20;105.03;;;;;;;;;;5048895;28;20430;-45
2023/09/13 12:17:51;;;;;;;211.60;99.37;;;;;;;;;;5052139;28;20437;-45
2023/09/13 12:20:17;;;;;;;243.03;110.17;;;;;;;;;;5056037;28;20417;-44
2023/09/13 12:22:42;;;;;;;225.33;102.67;;;;;;;;;;5057892;28;20445;-45
2023/09/13 12:25:12;;;;;;;230.77;105.40;;;;;;;;;;5056964;28;20456;-44
2023/09/13 12:27:39;;;;;;;235.87;111.73;;;;;;;;;;5055244;28;20408;-45
2023/09/13 12:30:05;;;;;;;235.20;110.87;;;;;;;;;;5074614;28;20492;-45
2023/09/13 12:32:31;;;;;;;221.47;100.13;;;;;;;;;;5057104;28;20476;-45
2023/09/13 12:34:58;;;;;;;194.03;94.10;;;;;;;;;;5068615;28;20416;-45
2023/09/13 12:37:23;;;;;;;186.80;89.80;;;;;;;;;;5062836;28;20409;-45
2023/09/13 12:39:49;;;;;;;234.07;109.37;;;;;;;;;;5062577;28;20411;-45
2023/09/13 12:42:15;;;;;;;243.43;113.37;;;;;;;;;;5069124;28;20416;-46
2023/09/13 12:44:45;;;;;;;248.17;115.07;;;;;;;;;;5056293;28;20447;-45
2023/09/13 12:47:11;;;;;;;210.40;104.67;;;;;;;;;;5074031;28;20493;-46
2023/09/13 12:49:40;;;;;;;224.33;104.37;;;;;;;;;;5054298;28;20969;-45
2023/09/13 12:52:06;;;;;;;244.27;111.23;;;;;;;;;;5071290;28;20519;-45
2023/09/13 12:54:36;;;;;;;235.23;109.10;;;;;;;;;;5059915;28;20505;-46
2023/09/13 12:57:05;;;;;;;241.63;108.83;;;;;;;;;;5053768;28;20457;-45
2023/09/13 12:59:41;;;;;;;247.40;116.50;;;;;;;;;;5062567;28;20442;-45
2023/09/13 13:02:12;;;;;;;241.67;105.57;;;;;;;;;;5053433;28;20409;-45
2023/09/13 13:04:41;;;;;;;217.27;99.03;;;;;;;;;;5053684;28;20533;-46
2023/09/13 13:07:07;;;;;;;244.37;107.07;;;;;;;;;;5055860;28;20404;-45
2023/09/13 13:09:33;;;;;;;246.57;109.67;;;;;;;;;;5057894;28;20504;-45
2023/09/13 13:12:00;;;;;;;229.53;105.13;;;;;;;;;;5053630;28;20412;-45
2023/09/13 13:14:26;;;;;;;226.97;103.17;;;;;;;;;;5050938;28;20912;-46
2023/09/13 13:16:56;;;;;;;231.13;102.07;;;;;;;;;;5050136;28;20417;-46
2023/09/13 13:19:36;;;;;;;226.23;101.30;;;;;;;;;;5058120;28;20462;-46
2023/09/13 13:22:03;;;;;;;240.90;104.13;;;;;;;;;;5053602;28;20423;-45
2023/09/13 13:24:29;;;;;;;256.50;112.10;;;;;;;;;;5053004;28;20466;-45
2023/09/13 13:26:55;;;;;;;245.07;111.23;;;;;;;;;;5051835;28;20440;-46
2023/09/13 13:29:21;;;;;;;213.40;104.40;;;;;;;;;;5054016;28;20423;-46
2023/09/13 13:31:47;;;;;;;245.23;105.47;;;;;;;;;;5055434;28;20458;-45
2023/09/13 13:34:14;;;;;;;268.73;118.33;;;;;;;;;;5052172;28;20424;-45
2023/09/13 13:36:40;;;;;;;237.90;105.63;;;;;;;;;;5068114;28;20503;-45
2023/09/13 13:39:06;;;;;;;244.03;108.07;;;;;;;;;;5061558;28;20435;-45
2023/09/13 13:41:32;;;;;;;238.97;108.47;;;;;;;;;;5062149;28;20415;-45
2023/09/13 13:44:00;;;;;;;225.47;107.73;;;;;;;;;;5067084;28;20986;-45
2023/09/13 13:46:28;;;;;;;238.53;108.40;;;;;;;;;;5056179;28;20634;-45
2023/09/13 13:48:54;;;;;;;226.60;99.30;;;;;;;;;;5072458;28;20420;-45
2023/09/13 13:51:20;;;;;;;243.07;108.67;;;;;;;;;;5052983;28;21053;-45
2023/09/13 13:53:46;;;;;;;228.00;100.90;;;;;;;;;;5070289;28;20806;-45